Date,TemperatureHighF,TemperatureAvgF,TemperatureLowF,DewpointHighF,DewpointAvgF,DewpointLowF,HumidityHigh,HumidityAvg,HumidityLow,PressureMaxIn,PressureMinIn,WindSpeedMaxMPH,WindSpeedAvgMPH,GustSpeedMaxMPH,PrecipitationSumIn
2013-5-1,81,63,43,41,34,28,59,37,19,30.10,29.95,10,3,10,0.00
2013-5-2,85,65,45,46,40,36,74,45,21,30.11,29.92,10,2,10,0.00
2013-5-3,76,62,47,40,36,30,54,39,23,30.13,29.97,11,3,11,0.00
2013-5-4,80,62,44,48,41,33,73,48,28,30.01,29.82,10,2,10,0.00
2013-5-5,79,61,42,44,38,31,80,48,22,29.94,29.79,9,3,9,0.00
2013-5-6,79,60,41,47,40,32,83,51,21,29.90,29.74,8,2,8,0.00
2013-5-7,85,67,48,55,49,44,86,56,28,29.82,29.70,10,2,10,0.00
2013-5-8,76,65,55,60,55,50,86,72,54,29.79,29.64,6,1,6,0.04
2013-5-9,76,62,52,58,53,47,89,72,48,29.66,29.53,10,2,10,0.00
2013-5-10,84,67,51,60,53,46,89,65,38,29.65,29.48,6,1,6,0.00
2013-5-11,73,64,55,65,56,47,87,77,67,29.50,29.32,11,3,11,0.11
2013-5-12,61,52,40,49,38,26,85,62,29,29.52,29.33,18,4,18,0.04
2013-5-13,53,45,38,32,28,24,74,53,39,29.74,29.52,16,4,16,0.00
2013-5-14,60,48,39,32,29,26,70,48,31,29.76,29.67,13,4,13,0.00
2013-5-15,68,52,36,50,39,25,80,61,47,29.70,29.26,14,3,14,0.03
2013-5-16,81,66,50,49,40,33,77,40,23,29.53,29.35,16,5,16,0.00
2013-5-17,73,59,47,44,39,36,66,48,29,29.87,29.53,14,4,14,0.00
2013-5-18,78,61,45,49,43,35,72,53,30,29.96,29.86,8,1,8,0.00
2013-5-19,61,56,49,55,50,43,87,82,70,29.95,29.80,10,2,10,0.06
2013-5-20,87,70,55,67,59,52,89,71,50,29.81,29.59,7,1,7,0.00
2013-5-21,93,73,60,72,64,56,91,74,46,29.62,29.45,12,1,12,0.47
2013-5-22,85,72,63,72,66,60,90,80,61,29.56,29.44,16,3,16,1.10
2013-5-23,79,69,64,69,63,59,89,81,68,29.49,29.39,10,2,10,0.35
2013-5-24,65,51,41,62,46,38,90,86,79,29.66,29.32,14,5,14,0.64
2013-5-25,45,43,42,42,40,37,90,87,77,29.65,29.56,24,9,24,0.69
2013-5-26,58,51,44,44,39,35,79,64,47,29.77,29.52,20,8,20,0.01
2013-5-27,70,59,49,41,36,32,59,44,29,29.86,29.77,18,5,18,0.00
2013-5-28,76,59,44,52,43,32,82,56,33,29.87,29.77,13,2,13,0.01
2013-5-29,83,66,56,71,59,52,90,81,63,29.78,29.58,22,2,22,0.78
2013-5-30,89,76,59,73,65,56,92,70,49,29.77,29.70,11,2,11,0.01
2013-5-31,96,81,65,74,67,60,88,65,42,29.78,29.59,9,2,9,0.00